^^
Meteo Knjazevac Station Historical Data
Daily Summary for July 12, 2021 Units:  Both    English   Metric
Daily Weekly Monthly Yearly Custom
  High: Low: Average:
Temperature: 40.5 °F /  4.7 °C 34.3 °F /  1.3 °C 35.6 °F /  2 °C
Dew Point: 40.2 °F /  4.6 °C 31.9 °F /  -0.1 °C 34.5 °F /  1.4 °C
Humidity: 99% 90% 96%
Wind Speed: 14mph /  22.5km/h - 6.5mph /  10.5km/h
Wind Gust: 21mph /  33.8km/h - -
Wind- - SW
Pressure: 30.04 in /  1017.2 hPa 29.68 in /  1005 hPa -
Precipitation: 0.10 in /  2.54 mm    
Historical Graphs
 
 
Tabular Data for July 12, 2021
Time Temperature Dew Point Pressure Wind Wind Speed Wind Gust Humidity Rainfall Rate (Hourly) solar Conditions
00:00 40.3 °F /  4.6 °C 40 °F /  4.4 °C 29.68in /  1005hPa SE 3mph /  4.8km/h 5mph /  8km/h 99% 0.02in /  0.51mm 0 W/m2
00:10 40.3 °F /  4.6 °C 40 °F /  4.4 °C 29.68in /  1005hPa ESE 3mph /  4.8km/h 4mph /  6.4km/h 99% 0.02in /  0.51mm 0 W/m2
00:20 40.5 °F /  4.7 °C 40.2 °F /  4.6 °C 29.68in /  1005hPa ESE 2mph /  3.2km/h 3mph /  4.8km/h 99% 0.01in /  0.25mm 0 W/m2
00:30 40.5 °F /  4.7 °C 40.2 °F /  4.6 °C 29.68in /  1005hPa SSE 3mph /  4.8km/h 4mph /  6.4km/h 99% 0.01in /  0.25mm 0 W/m2
00:40 40.3 °F /  4.6 °C 40 °F /  4.4 °C 29.68in /  1005hPa SSW 5mph /  8km/h 8mph /  12.9km/h 99% 0.01in /  0.25mm 0 W/m2
00:50 40 °F /  4.4 °C 39.8 °F /  4.3 °C 29.69in /  1005.3hPa SW 9mph /  14.5km/h 13mph /  20.9km/h 99% 0.00in /  0mm 0 W/m2
01:00 39.4 °F /  4.1 °C 39.1 °F /  3.9 °C 29.68in /  1005hPa SW 7mph /  11.3km/h 14mph /  22.5km/h 99% 0.00in /  0mm 0 W/m2
01:10 38.8 °F /  3.8 °C 38.6 °F /  3.7 °C 29.68in /  1005hPa SW 6mph /  9.7km/h 12mph /  19.3km/h 99% 0.01in /  0.25mm 0 W/m2
01:20 38.5 °F /  3.6 °C 38.2 °F /  3.4 °C 29.69in /  1005.3hPa SSW 6mph /  9.7km/h 12mph /  19.3km/h 99% 0.01in /  0.25mm 0 W/m2
01:30 38.3 °F /  3.5 °C 38 °F /  3.3 °C 29.69in /  1005.3hPa SSW 6mph /  9.7km/h 8mph /  12.9km/h 99% 0.00in /  0mm 0 W/m2
01:40 38.1 °F /  3.4 °C 37.8 °F /  3.2 °C 29.70in /  1005.6hPa SSW 5mph /  8km/h 10mph /  16.1km/h 99% 0.00in /  0mm 0 W/m2
01:50 37.8 °F /  3.2 °C 37.5 °F /  3.1 °C 29.70in /  1005.6hPa SSW 7mph /  11.3km/h 11mph /  17.7km/h 99% 0.00in /  0mm 0 W/m2
02:00 37.6 °F /  3.1 °C 37.3 °F /  2.9 °C 29.71in /  1006hPa SSW 5mph /  8km/h 12mph /  19.3km/h 99% 0.00in /  0mm 0 W/m2
02:10 37.4 °F /  3 °C 37.1 °F /  2.8 °C 29.71in /  1006hPa SW 6mph /  9.7km/h 12mph /  19.3km/h 99% 0.01in /  0.25mm 0 W/m2
02:20 37.2 °F /  2.9 °C 37 °F /  2.8 °C 29.72in /  1006.3hPa SSW 7mph /  11.3km/h 13mph /  20.9km/h 99% 0.00in /  0mm 0 W/m2
02:30 37 °F /  2.8 °C 36.8 °F /  2.7 °C 29.73in /  1006.7hPa SSW 8mph /  12.9km/h 14mph /  22.5km/h 99% 0.00in /  0mm 0 W/m2
02:40 36.7 °F /  2.6 °C 36.4 °F /  2.4 °C 29.73in /  1006.7hPa SSW 9mph /  14.5km/h 14mph /  22.5km/h 99% 0.00in /  0mm 0 W/m2
02:50 36.3 °F /  2.4 °C 36.1 °F /  2.3 °C 29.73in /  1006.7hPa SSW 7mph /  11.3km/h 14mph /  22.5km/h 99% 0.00in /  0mm 0 W/m2
03:00 36 °F /  2.2 °C 35.7 °F /  2.1 °C 29.73in /  1006.7hPa SW 8mph /  12.9km/h 14mph /  22.5km/h 99% 0.00in /  0mm 0 W/m2
03:10 35.7 °F /  2.1 °C 35.5 °F /  1.9 °C 29.72in /  1006.3hPa SW 9mph /  14.5km/h 14mph /  22.5km/h 99% 0.00in /  0mm 0 W/m2
03:20 35.4 °F /  1.9 °C 35.2 °F /  1.8 °C 29.73in /  1006.7hPa SSW 8mph /  12.9km/h 13mph /  20.9km/h 99% 0.00in /  0mm 0 W/m2
03:30 35.6 °F /  2 °C 35.3 °F /  1.8 °C 29.72in /  1006.3hPa SW 9mph /  14.5km/h 14mph /  22.5km/h 99% 0.00in /  0mm 0 W/m2
03:40 35.6 °F /  2 °C 35.3 °F /  1.8 °C 29.72in /  1006.3hPa SSW 8mph /  12.9km/h 14mph /  22.5km/h 99% 0.00in /  0mm 0 W/m2
03:50 35.4 °F /  1.9 °C 35.2 °F /  1.8 °C 29.73in /  1006.7hPa SSW 10mph /  16.1km/h 14mph /  22.5km/h 99% 0.00in /  0mm 0 W/m2
04:00 35.4 °F /  1.9 °C 35.2 °F /  1.8 °C 29.73in /  1006.7hPa SSW 10mph /  16.1km/h 14mph /  22.5km/h 99% 0.00in /  0mm 0 W/m2
04:10 35.2 °F /  1.8 °C 35 °F /  1.7 °C 29.74in /  1007hPa SW 9mph /  14.5km/h 21mph /  33.8km/h 99% 0.00in /  0mm 0 W/m2
04:20 35.2 °F /  1.8 °C 34.9 °F /  1.6 °C 29.74in /  1007hPa SW 14mph /  22.5km/h 20mph /  32.2km/h 99% 0.00in /  0mm 0 W/m2
04:30 35.1 °F /  1.7 °C 34.8 °F /  1.6 °C 29.74in /  1007hPa SW 10mph /  16.1km/h 21mph /  33.8km/h 99% 0.00in /  0mm 0 W/m2
04:40 35.1 °F /  1.7 °C 34.8 °F /  1.6 °C 29.75in /  1007.3hPa SW 14mph /  22.5km/h 20mph /  32.2km/h 99% 0.01in /  0.25mm 0 W/m2
04:50 34.9 °F /  1.6 °C 34.6 °F /  1.4 °C 29.75in /  1007.3hPa SW 13mph /  20.9km/h 21mph /  33.8km/h 99% 0.00in /  0mm 0 W/m2
05:00 34.9 °F /  1.6 °C 34.4 °F /  1.3 °C 29.76in /  1007.7hPa SW 10mph /  16.1km/h 16mph /  25.7km/h 98% 0.00in /  0mm 0 W/m2
05:10 34.7 °F /  1.5 °C 34.4 °F /  1.3 °C 29.77in /  1008hPa SW 9mph /  14.5km/h 16mph /  25.7km/h 99% 0.00in /  0mm 0 W/m2
05:20 34.7 °F /  1.5 °C 34.4 °F /  1.3 °C 29.78in /  1008.4hPa SW 12mph /  19.3km/h 17mph /  27.4km/h 99% 0.00in /  0mm 0 W/m2
05:30 34.7 °F /  1.5 °C 34.2 °F /  1.2 °C 29.78in /  1008.4hPa SW 14mph /  22.5km/h 18mph /  29km/h 98% 0.00in /  0mm 0 W/m2
05:40 34.7 °F /  1.5 °C 34.2 °F /  1.2 °C 29.78in /  1008.4hPa SW 9mph /  14.5km/h 21mph /  33.8km/h 98% 0.00in /  0mm 0 W/m2
05:50 34.7 °F /  1.5 °C 34.2 °F /  1.2 °C 29.79in /  1008.7hPa SW 9mph /  14.5km/h 17mph /  27.4km/h 98% 0.00in /  0mm 0 W/m2
06:00 34.7 °F /  1.5 °C 34.2 °F /  1.2 °C 29.80in /  1009hPa SW 9mph /  14.5km/h 17mph /  27.4km/h 98% 0.00in /  0mm 0 W/m2
06:10 34.7 °F /  1.5 °C 34.2 °F /  1.2 °C 29.80in /  1009hPa SW 9mph /  14.5km/h 19mph /  30.6km/h 98% 0.00in /  0mm 0 W/m2
06:20 34.7 °F /  1.5 °C 34.2 °F /  1.2 °C 29.80in /  1009hPa SW 8mph /  12.9km/h 20mph /  32.2km/h 98% 0.00in /  0mm 0 W/m2
06:30 34.7 °F /  1.5 °C 33.7 °F /  0.9 °C 29.80in /  1009hPa SW 12mph /  19.3km/h 18mph /  29km/h 96% 0.00in /  0mm 0 W/m2
06:40 34.7 °F /  1.5 °C 33.7 °F /  0.9 °C 29.81in /  1009.4hPa SW 12mph /  19.3km/h 20mph /  32.2km/h 96% 0.00in /  0mm 0 W/m2
06:50 34.7 °F /  1.5 °C 33.7 °F /  0.9 °C 29.81in /  1009.4hPa SW 12mph /  19.3km/h 20mph /  32.2km/h 96% 0.00in /  0mm 0 W/m2
07:00 34.7 °F /  1.5 °C 33.7 °F /  0.9 °C 29.82in /  1009.7hPa SW 12mph /  19.3km/h 21mph /  33.8km/h 96% 0.00in /  0mm 4 W/m2
07:10 34.5 °F /  1.4 °C 33.5 °F /  0.8 °C 29.83in /  1010hPa SW 9mph /  14.5km/h 18mph /  29km/h 96% 0.00in /  0mm 5 W/m2
07:20 34.5 °F /  1.4 °C 33.5 °F /  0.8 °C 29.83in /  1010hPa SW 10mph /  16.1km/h 17mph /  27.4km/h 96% 0.00in /  0mm 14 W/m2
07:30 34.5 °F /  1.4 °C 33.5 °F /  0.8 °C 29.84in /  1010.4hPa SW 6mph /  9.7km/h 17mph /  27.4km/h 96% 0.00in /  0mm 18 W/m2
07:40 34.5 °F /  1.4 °C 33.5 °F /  0.8 °C 29.85in /  1010.7hPa SSW 9mph /  14.5km/h 15mph /  24.1km/h 96% 0.00in /  0mm 23 W/m2
07:50 34.7 °F /  1.5 °C 33.7 °F /  0.9 °C 29.86in /  1011.1hPa SW 7mph /  11.3km/h 20mph /  32.2km/h 96% 0.00in /  0mm 30 W/m2
08:00 34.7 °F /  1.5 °C 33.7 °F /  0.9 °C 29.86in /  1011.1hPa SW 10mph /  16.1km/h 16mph /  25.7km/h 96% 0.00in /  0mm 37 W/m2
08:10 34.7 °F /  1.5 °C 33.7 °F /  0.9 °C 29.87in /  1011.4hPa SW 10mph /  16.1km/h 20mph /  32.2km/h 96% 0.00in /  0mm 68 W/m2
08:20 34.7 °F /  1.5 °C 33.7 °F /  0.9 °C 29.87in /  1011.4hPa SW 8mph /  12.9km/h 17mph /  27.4km/h 96% 0.00in /  0mm 84 W/m2
08:30 34.8 °F /  1.6 °C 33.8 °F /  1 °C 29.87in /  1011.4hPa SW 8mph /  12.9km/h 15mph /  24.1km/h 96% 0.00in /  0mm 89 W/m2
08:40 34.9 °F /  1.6 °C 33.9 °F /  1.1 °C 29.88in /  1011.7hPa SW 8mph /  12.9km/h 15mph /  24.1km/h 96% 0.00in /  0mm 103 W/m2
08:50 35.2 °F /  1.8 °C 34.2 °F /  1.2 °C 29.89in /  1012.1hPa SW 9mph /  14.5km/h 17mph /  27.4km/h 96% 0.00in /  0mm 122 W/m2
09:00 35.2 °F /  1.8 °C 34 °F /  1.1 °C 29.89in /  1012.1hPa SW 7mph /  11.3km/h 15mph /  24.1km/h 95% 0.00in /  0mm 89 W/m2
09:10 35.2 °F /  1.8 °C 34 °F /  1.1 °C 29.89in /  1012.1hPa SW 8mph /  12.9km/h 15mph /  24.1km/h 95% 0.00in /  0mm 100 W/m2
09:20 35.4 °F /  1.9 °C 34.1 °F /  1.2 °C 29.90in /  1012.4hPa SW 6mph /  9.7km/h 17mph /  27.4km/h 95% 0.00in /  0mm 120 W/m2
09:30 35.4 °F /  1.9 °C 34.4 °F /  1.3 °C 29.90in /  1012.4hPa SW 6mph /  9.7km/h 14mph /  22.5km/h 96% 0.00in /  0mm 162 W/m2
09:40 35.7 °F /  2.1 °C 34.4 °F /  1.3 °C 29.91in /  1012.8hPa SW 7mph /  11.3km/h 17mph /  27.4km/h 95% 0.00in /  0mm 161 W/m2
09:50 35.8 °F /  2.1 °C 34.5 °F /  1.4 °C 29.91in /  1012.8hPa SSW 6mph /  9.7km/h 13mph /  20.9km/h 95% 0.00in /  0mm 100 W/m2
10:00 35.7 °F /  2.1 °C 34.4 °F /  1.3 °C 29.91in /  1012.8hPa SW 8mph /  12.9km/h 14mph /  22.5km/h 95% 0.00in /  0mm 90 W/m2
10:10 35.7 °F /  2.1 °C 34.4 °F /  1.3 °C 29.91in /  1012.8hPa SW 7mph /  11.3km/h 12mph /  19.3km/h 95% 0.00in /  0mm 102 W/m2
10:20 35.6 °F /  2 °C 34.3 °F /  1.3 °C 29.91in /  1012.8hPa SW 8mph /  12.9km/h 16mph /  25.7km/h 95% 0.00in /  0mm 61 W/m2
10:30 35.4 °F /  1.9 °C 34.1 °F /  1.2 °C 29.92in /  1013.1hPa SW 7mph /  11.3km/h 13mph /  20.9km/h 95% 0.00in /  0mm 60 W/m2
10:40 35.4 °F /  1.9 °C 34.1 °F /  1.2 °C 29.92in /  1013.1hPa SW 7mph /  11.3km/h 13mph /  20.9km/h 95% 0.00in /  0mm 57 W/m2
10:50 35.3 °F /  1.8 °C 34 °F /  1.1 °C 29.92in /  1013.1hPa SW 9mph /  14.5km/h 18mph /  29km/h 95% 0.00in /  0mm 52 W/m2
11:00 35.3 °F /  1.8 °C 34 °F /  1.1 °C 29.92in /  1013.1hPa SW 9mph /  14.5km/h 15mph /  24.1km/h 95% 0.00in /  0mm 89 W/m2
11:10 35.4 °F /  1.9 °C 34.1 °F /  1.2 °C 29.93in /  1013.4hPa SW 9mph /  14.5km/h 14mph /  22.5km/h 95% 0.00in /  0mm 68 W/m2
11:20 35.4 °F /  1.9 °C 34.1 °F /  1.2 °C 29.93in /  1013.4hPa SW 8mph /  12.9km/h 14mph /  22.5km/h 95% 0.00in /  0mm 76 W/m2
11:30 35.4 °F /  1.9 °C 34.1 °F /  1.2 °C 29.93in /  1013.4hPa SW 8mph /  12.9km/h 13mph /  20.9km/h 95% 0.00in /  0mm 71 W/m2
11:40 35.4 °F /  1.9 °C 34.1 °F /  1.2 °C 29.94in /  1013.8hPa SW 8mph /  12.9km/h 13mph /  20.9km/h 95% 0.00in /  0mm 33 W/m2
11:50 35.4 °F /  1.9 °C 34.1 °F /  1.2 °C 29.94in /  1013.8hPa SW 6mph /  9.7km/h 13mph /  20.9km/h 95% 0.00in /  0mm 39 W/m2
12:00 35.4 °F /  1.9 °C 34.1 °F /  1.2 °C 29.94in /  1013.8hPa SW 5mph /  8km/h 11mph /  17.7km/h 95% 0.00in /  0mm 48 W/m2
12:10 35.4 °F /  1.9 °C 34.1 °F /  1.2 °C 29.95in /  1014.1hPa SW 5mph /  8km/h 9mph /  14.5km/h 95% 0.00in /  0mm 45 W/m2
12:20 35.6 °F /  2 °C 34 °F /  1.1 °C 29.95in /  1014.1hPa SW 5mph /  8km/h 12mph /  19.3km/h 94% 0.00in /  0mm 40 W/m2
12:30 35.6 °F /  2 °C 34 °F /  1.1 °C 29.95in /  1014.1hPa WSW 5mph /  8km/h 12mph /  19.3km/h 94% 0.00in /  0mm 51 W/m2
12:40 35.8 °F /  2.1 °C 34.2 °F /  1.2 °C 29.95in /  1014.1hPa WSW 8mph /  12.9km/h 11mph /  17.7km/h 94% 0.00in /  0mm 49 W/m2
12:50 35.8 °F /  2.1 °C 34.2 °F /  1.2 °C 29.95in /  1014.1hPa WSW 3mph /  4.8km/h 10mph /  16.1km/h 94% 0.00in /  0mm 40 W/m2
13:00 35.8 °F /  2.1 °C 34 °F /  1.1 °C 29.96in /  1014.4hPa WSW 2mph /  3.2km/h 8mph /  12.9km/h 93% 0.00in /  0mm 40 W/m2
13:10 35.8 °F /  2.1 °C 34 °F /  1.1 °C 29.96in /  1014.4hPa West 3mph /  4.8km/h 8mph /  12.9km/h 93% 0.00in /  0mm 35 W/m2
13:20 35.8 °F /  2.1 °C 33.4 °F /  0.8 °C 29.96in /  1014.4hPa West 6mph /  9.7km/h 10mph /  16.1km/h 91% 0.00in /  0mm 34 W/m2
13:30 35.6 °F /  2 °C 33.2 °F /  0.7 °C 29.96in /  1014.4hPa West 6mph /  9.7km/h 10mph /  16.1km/h 91% 0.00in /  0mm 25 W/m2
13:40 35.6 °F /  2 °C 33.2 °F /  0.7 °C 29.96in /  1014.4hPa West 5mph /  8km/h 9mph /  14.5km/h 91% 0.00in /  0mm 16 W/m2
13:50 35.4 °F /  1.9 °C 33.1 °F /  0.6 °C 29.97in /  1014.8hPa West 3mph /  4.8km/h 9mph /  14.5km/h 91% 0.00in /  0mm 18 W/m2
14:00 35.4 °F /  1.9 °C 33.1 °F /  0.6 °C 29.97in /  1014.8hPa WSW 3mph /  4.8km/h 9mph /  14.5km/h 91% 0.00in /  0mm 15 W/m2
14:10 35.3 °F /  1.8 °C 33 °F /  0.6 °C 29.98in /  1015.1hPa WSW 3mph /  4.8km/h 7mph /  11.3km/h 91% 0.00in /  0mm 12 W/m2
14:20 35.2 °F /  1.8 °C 32.9 °F /  0.5 °C 29.98in /  1015.1hPa WSW 3mph /  4.8km/h 5mph /  8km/h 91% 0.00in /  0mm 8 W/m2
14:30 35.2 °F /  1.8 °C 33.4 °F /  0.8 °C 29.98in /  1015.1hPa WSW 2mph /  3.2km/h 6mph /  9.7km/h 93% 0.00in /  0mm 5 W/m2
14:40 35.2 °F /  1.8 °C 33.4 °F /  0.8 °C 29.99in /  1015.5hPa WSW 3mph /  4.8km/h 6mph /  9.7km/h 93% 0.00in /  0mm 5 W/m2
14:50 35.1 °F /  1.7 °C 33.2 °F /  0.7 °C 29.99in /  1015.5hPa WSW 2mph /  3.2km/h 5mph /  8km/h 93% 0.00in /  0mm 5 W/m2
15:00 35.1 °F /  1.7 °C 33.2 °F /  0.7 °C 29.99in /  1015.5hPa WSW 3mph /  4.8km/h 5mph /  8km/h 93% 0.00in /  0mm 4 W/m2
15:10 34.9 °F /  1.6 °C 33.1 °F /  0.6 °C 29.99in /  1015.5hPa WSW 3mph /  4.8km/h 7mph /  11.3km/h 93% 0.00in /  0mm 3 W/m2
15:20 34.9 °F /  1.6 °C 33.1 °F /  0.6 °C 30.00in /  1015.8hPa SW 1mph /  1.6km/h 5mph /  8km/h 93% 0.00in /  0mm 3 W/m2
15:30 34.9 °F /  1.6 °C 33.3 °F /  0.7 °C 30.00in /  1015.8hPa SW 2mph /  3.2km/h 4mph /  6.4km/h 94% 0.00in /  0mm 3 W/m2
15:40 34.8 °F /  1.6 °C 33 °F /  0.6 °C 30.00in /  1015.8hPa SW 2mph /  3.2km/h 5mph /  8km/h 93% 0.00in /  0mm 2 W/m2
15:50 34.7 °F /  1.5 °C 33.2 °F /  0.7 °C 30.00in /  1015.8hPa Calm   3mph /  4.8km/h 94% 0.00in /  0mm 1 W/m2
16:00 34.7 °F /  1.5 °C 33.2 °F /  0.7 °C 30.00in /  1015.8hPa West 1mph /  1.6km/h 5mph /  8km/h 94% 0.00in /  0mm 0 W/m2
16:10 34.7 °F /  1.5 °C 32.9 °F /  0.5 °C 30.00in /  1015.8hPa West 2mph /  3.2km/h 6mph /  9.7km/h 93% 0.00in /  0mm 0 W/m2
16:20 34.6 °F /  1.4 °C 33 °F /  0.6 °C 30.01in /  1016.1hPa WSW 2mph /  3.2km/h 5mph /  8km/h 94% 0.00in /  0mm 0 W/m2
16:30 34.5 °F /  1.4 °C 33 °F /  0.6 °C 30.02in /  1016.5hPa West 2mph /  3.2km/h 5mph /  8km/h 94% 0.00in /  0mm 0 W/m2
16:40 34.5 °F /  1.4 °C 33 °F /  0.6 °C 30.02in /  1016.5hPa WSW 5mph /  8km/h 6mph /  9.7km/h 94% 0.00in /  0mm 0 W/m2
16:50 34.5 °F /  1.4 °C 32.7 °F /  0.4 °C 30.02in /  1016.5hPa West 6mph /  9.7km/h 11mph /  17.7km/h 93% 0.00in /  0mm 0 W/m2
17:00 34.3 °F /  1.3 °C 32 °F /  0 °C 30.02in /  1016.5hPa WSW 5mph /  8km/h 11mph /  17.7km/h 91% 0.00in /  0mm 0 W/m2
17:10 34.5 °F /  1.4 °C 31.9 °F /  -0.1 °C 30.03in /  1016.8hPa WSW 6mph /  9.7km/h 13mph /  20.9km/h 90% 0.00in /  0mm 0 W/m2
17:20 34.5 °F /  1.4 °C 32.2 °F /  0.1 °C 30.03in /  1016.8hPa WSW 3mph /  4.8km/h 10mph /  16.1km/h 91% 0.00in /  0mm 0 W/m2
17:30 34.3 °F /  1.3 °C 32 °F /  0 °C 30.03in /  1016.8hPa WSW 3mph /  4.8km/h 9mph /  14.5km/h 91% 0.00in /  0mm 0 W/m2
17:40 34.3 °F /  1.3 °C 32 °F /  0 °C 30.03in /  1016.8hPa WSW 2mph /  3.2km/h 6mph /  9.7km/h 91% 0.00in /  0mm 0 W/m2
17:50 34.3 °F /  1.3 °C 32 °F /  0 °C 30.04in /  1017.2hPa SSW 2mph /  3.2km/h 5mph /  8km/h 91% 0.00in /  0mm 0 W/m2
18:00 34.3 °F /  1.3 °C 32.5 °F /  0.3 °C 30.03in /  1016.8hPa SW 2mph /  3.2km/h 5mph /  8km/h 93% 0.00in /  0mm 0 W/m2
18:10 34.3 °F /  1.3 °C 32 °F /  0 °C 30.04in /  1017.2hPa SW 2mph /  3.2km/h 5mph /  8km/h 91% 0.00in /  0mm 0 W/m2
Knjazevac, Serbia
Compliments of Weather Underground - 2 mb